Khasavyurt, Russia
Current Conditions -  °F | °C
As of 11:00 AM on Monday 24 Nov 2014 (Local Time) from URML Reporting Station
Overcast Overcast  
Wind Chill: 25°   Ceiling: 10000
Heat Index: 34°   Visibility: 6mi
Dew Point: 30°   Wind: 11mph
Humidity: 87%   Direction: 360°N
Pressure: 30.45"   Gusts: NA
Location:  43.24°N, 46.58°E
Report Text: URML 240800Z 36005MPS 9999 OVC100 01/M01 Q1031 NOSIG RMKQFE773/1031
Loading
Personal Weather Stations






























Interactive Weather Map New forecast layout! Learn more

10-Day Weather Forecast

Advertisements
Track Severe Weather on mobile